sensor_id;sensor_type;location;lat;lon;timestamp;P1;durP1;ratioP1;P2;durP2;ratioP2
27642;SDS011;15053;48.618;10.024;2023-04-25T00:01:54;4.43;;;2.50;;
27642;SDS011;15053;48.618;10.024;2023-04-25T00:04:20;4.93;;;3.28;;
27642;SDS011;15053;48.618;10.024;2023-04-25T00:06:48;6.13;;;2.90;;
27642;SDS011;15053;48.618;10.024;2023-04-25T00:09:15;4.65;;;2.72;;
27642;SDS011;15053;48.618;10.024;2023-04-25T00:11:41;10.25;;;3.17;;
27642;SDS011;15053;48.618;10.024;2023-04-25T00:14:08;8.43;;;3.40;;
27642;SDS011;15053;48.618;10.024;2023-04-25T00:16:34;4.18;;;2.58;;
27642;SDS011;15053;48.618;10.024;2023-04-25T00:19:02;3.15;;;2.85;;
27642;SDS011;15053;48.618;10.024;2023-04-25T00:21:29;4.68;;;3.10;;
27642;SDS011;15053;48.618;10.024;2023-04-25T00:23:57;5.97;;;3.35;;
27642;SDS011;15053;48.618;10.024;2023-04-25T00:26:24;4.38;;;2.80;;
27642;SDS011;15053;48.618;10.024;2023-04-25T00:28:51;5.35;;;2.90;;
27642;SDS011;15053;48.618;10.024;2023-04-25T00:31:18;6.38;;;3.20;;
27642;SDS011;15053;48.618;10.024;2023-04-25T00:33:44;5.65;;;3.38;;
27642;SDS011;15053;48.618;10.024;2023-04-25T00:36:11;5.90;;;2.95;;
27642;SDS011;15053;48.618;10.024;2023-04-25T00:38:37;7.90;;;3.35;;
27642;SDS011;15053;48.618;10.024;2023-04-25T00:41:05;5.45;;;3.20;;
27642;SDS011;15053;48.618;10.024;2023-04-25T00:43:33;4.57;;;2.90;;
27642;SDS011;15053;48.618;10.024;2023-04-25T00:46:02;4.63;;;3.00;;
27642;SDS011;15053;48.618;10.024;2023-04-25T00:48:28;5.80;;;3.85;;
27642;SDS011;15053;48.618;10.024;2023-04-25T00:50:57;5.50;;;3.13;;
27642;SDS011;15053;48.618;10.024;2023-04-25T00:53:25;4.78;;;2.88;;
27642;SDS011;15053;48.618;10.024;2023-04-25T00:55:54;6.18;;;3.08;;
27642;SDS011;15053;48.618;10.024;2023-04-25T00:58:21;5.07;;;3.65;;
27642;SDS011;15053;48.618;10.024;2023-04-25T01:00:49;5.95;;;3.35;;
27642;SDS011;15053;48.618;10.024;2023-04-25T01:03:18;4.25;;;2.80;;
27642;SDS011;15053;48.618;10.024;2023-04-25T01:05:48;6.05;;;4.10;;
27642;SDS011;15053;48.618;10.024;2023-04-25T01:08:16;9.05;;;4.15;;
27642;SDS011;15053;48.618;10.024;2023-04-25T01:10:43;5.32;;;3.72;;
27642;SDS011;15053;48.618;10.024;2023-04-25T01:13:09;8.07;;;4.10;;
27642;SDS011;15053;48.618;10.024;2023-04-25T01:15:36;8.05;;;3.20;;
27642;SDS011;15053;48.618;10.024;2023-04-25T01:18:05;6.95;;;3.75;;
27642;SDS011;15053;48.618;10.024;2023-04-25T01:20:32;6.25;;;2.85;;
27642;SDS011;15053;48.618;10.024;2023-04-25T01:22:59;4.35;;;3.20;;
27642;SDS011;15053;48.618;10.024;2023-04-25T01:25:26;6.03;;;3.30;;
27642;SDS011;15053;48.618;10.024;2023-04-25T01:27:53;5.20;;;3.35;;
27642;SDS011;15053;48.618;10.024;2023-04-25T01:30:20;5.93;;;3.88;;
27642;SDS011;15053;48.618;10.024;2023-04-25T01:32:47;5.72;;;3.40;;
27642;SDS011;15053;48.618;10.024;2023-04-25T01:35:14;6.00;;;3.78;;
27642;SDS011;15053;48.618;10.024;2023-04-25T01:37:41;5.45;;;3.70;;
27642;SDS011;15053;48.618;10.024;2023-04-25T01:40:11;5.10;;;3.22;;
27642;SDS011;15053;48.618;10.024;2023-04-25T01:42:39;5.82;;;3.72;;
27642;SDS011;15053;48.618;10.024;2023-04-25T01:45:07;6.10;;;3.70;;
27642;SDS011;15053;48.618;10.024;2023-04-25T01:47:34;7.75;;;4.18;;
27642;SDS011;15053;48.618;10.024;2023-04-25T01:50:02;8.23;;;3.78;;
27642;SDS011;15053;48.618;10.024;2023-04-25T01:52:31;5.20;;;3.85;;
27642;SDS011;15053;48.618;10.024;2023-04-25T01:54:59;7.68;;;3.40;;
27642;SDS011;15053;48.618;10.024;2023-04-25T01:57:28;5.55;;;3.50;;
27642;SDS011;15053;48.618;10.024;2023-04-25T01:59:57;7.00;;;3.88;;
27642;SDS011;15053;48.618;10.024;2023-04-25T02:02:37;5.32;;;3.67;;
27642;SDS011;15053;48.618;10.024;2023-04-25T02:05:07;7.63;;;3.00;;
27642;SDS011;15053;48.618;10.024;2023-04-25T02:07:37;5.35;;;3.15;;
27642;SDS011;15053;48.618;10.024;2023-04-25T02:10:03;8.30;;;4.13;;
27642;SDS011;15053;48.618;10.024;2023-04-25T02:12:35;6.38;;;3.63;;
27642;SDS011;15053;48.618;10.024;2023-04-25T02:15:05;6.25;;;3.20;;
27642;SDS011;15053;48.618;10.024;2023-04-25T02:17:47;7.60;;;3.70;;
27642;SDS011;15053;48.618;10.024;2023-04-25T02:20:15;8.93;;;3.92;;
27642;SDS011;15053;48.618;10.024;2023-04-25T02:22:46;7.28;;;3.67;;
27642;SDS011;15053;48.618;10.024;2023-04-25T02:25:12;7.85;;;3.80;;
27642;SDS011;15053;48.618;10.024;2023-04-25T02:27:39;7.18;;;3.50;;
27642;SDS011;15053;48.618;10.024;2023-04-25T02:30:07;7.78;;;3.38;;
27642;SDS011;15053;48.618;10.024;2023-04-25T02:32:33;9.95;;;3.80;;
27642;SDS011;15053;48.618;10.024;2023-04-25T02:35:01;5.25;;;3.47;;
27642;SDS011;15053;48.618;10.024;2023-04-25T02:37:32;4.05;;;3.42;;
27642;SDS011;15053;48.618;10.024;2023-04-25T02:40:01;6.97;;;4.15;;
27642;SDS011;15053;48.618;10.024;2023-04-25T02:42:30;5.63;;;3.35;;
27642;SDS011;15053;48.618;10.024;2023-04-25T02:44:57;5.53;;;3.40;;
27642;SDS011;15053;48.618;10.024;2023-04-25T02:47:25;5.80;;;3.83;;
27642;SDS011;15053;48.618;10.024;2023-04-25T02:49:52;4.90;;;3.50;;
27642;SDS011;15053;48.618;10.024;2023-04-25T02:52:19;6.90;;;3.25;;
27642;SDS011;15053;48.618;10.024;2023-04-25T02:54:52;10.23;;;3.88;;
27642;SDS011;15053;48.618;10.024;2023-04-25T02:57:19;7.38;;;3.80;;
27642;SDS011;15053;48.618;10.024;2023-04-25T02:59:45;6.20;;;4.13;;
27642;SDS011;15053;48.618;10.024;2023-04-25T03:02:12;6.03;;;3.80;;
27642;SDS011;15053;48.618;10.024;2023-04-25T03:04:38;5.70;;;3.08;;
27642;SDS011;15053;48.618;10.024;2023-04-25T03:07:05;4.50;;;3.65;;
27642;SDS011;15053;48.618;10.024;2023-04-25T03:09:32;4.93;;;3.70;;
27642;SDS011;15053;48.618;10.024;2023-04-25T03:11:59;5.03;;;3.42;;
27642;SDS011;15053;48.618;10.024;2023-04-25T03:14:27;6.78;;;3.60;;
27642;SDS011;15053;48.618;10.024;2023-04-25T03:16:54;3.90;;;3.45;;
27642;SDS011;15053;48.618;10.024;2023-04-25T03:19:21;8.02;;;3.83;;
27642;SDS011;15053;48.618;10.024;2023-04-25T03:21:47;19.67;;;3.85;;
27642;SDS011;15053;48.618;10.024;2023-04-25T03:24:14;6.50;;;3.97;;
27642;SDS011;15053;48.618;10.024;2023-04-25T03:26:41;5.63;;;4.13;;
27642;SDS011;15053;48.618;10.024;2023-04-25T03:29:08;6.07;;;3.80;;
27642;SDS011;15053;48.618;10.024;2023-04-25T03:31:36;12.00;;;4.18;;
27642;SDS011;15053;48.618;10.024;2023-04-25T03:34:02;5.18;;;3.60;;
27642;SDS011;15053;48.618;10.024;2023-04-25T03:36:29;5.72;;;3.67;;
27642;SDS011;15053;48.618;10.024;2023-04-25T03:38:55;8.25;;;3.60;;
27642;SDS011;15053;48.618;10.024;2023-04-25T03:41:23;7.82;;;4.15;;
27642;SDS011;15053;48.618;10.024;2023-04-25T03:44:03;8.55;;;5.40;;
27642;SDS011;15053;48.618;10.024;2023-04-25T03:46:30;8.85;;;5.25;;
27642;SDS011;15053;48.618;10.024;2023-04-25T03:48:57;13.48;;;8.50;;
27642;SDS011;15053;48.618;10.024;2023-04-25T03:51:32;5.35;;;4.20;;
27642;SDS011;15053;48.618;10.024;2023-04-25T03:53:58;6.07;;;3.83;;
27642;SDS011;15053;48.618;10.024;2023-04-25T03:56:44;7.13;;;3.97;;
27642;SDS011;15053;48.618;10.024;2023-04-25T03:59:18;7.18;;;3.75;;
27642;SDS011;15053;48.618;10.024;2023-04-25T04:01:44;4.85;;;3.20;;
27642;SDS011;15053;48.618;10.024;2023-04-25T04:04:11;5.00;;;2.90;;
27642;SDS011;15053;48.618;10.024;2023-04-25T04:06:38;6.75;;;4.05;;
27642;SDS011;15053;48.618;10.024;2023-04-25T04:09:34;4.43;;;2.95;;
27642;SDS011;15053;48.618;10.024;2023-04-25T04:12:06;3.47;;;2.47;;
27642;SDS011;15053;48.618;10.024;2023-04-25T04:14:34;2.90;;;2.10;;
27642;SDS011;15053;48.618;10.024;2023-04-25T04:17:00;4.00;;;2.63;;
27642;SDS011;15053;48.618;10.024;2023-04-25T04:19:27;10.55;;;2.88;;
27642;SDS011;15053;48.618;10.024;2023-04-25T04:22:03;8.27;;;4.63;;
27642;SDS011;15053;48.618;10.024;2023-04-25T04:24:30;4.05;;;3.40;;
27642;SDS011;15053;48.618;10.024;2023-04-25T04:27:01;5.50;;;3.38;;
27642;SDS011;15053;48.618;10.024;2023-04-25T04:29:32;6.07;;;3.15;;
27642;SDS011;15053;48.618;10.024;2023-04-25T04:32:07;4.43;;;3.35;;
27642;SDS011;15053;48.618;10.024;2023-04-25T04:34:35;5.35;;;3.85;;
27642;SDS011;15053;48.618;10.024;2023-04-25T04:37:02;4.35;;;2.67;;
27642;SDS011;15053;48.618;10.024;2023-04-25T04:39:29;5.03;;;2.95;;
27642;SDS011;15053;48.618;10.024;2023-04-25T04:42:21;5.43;;;3.00;;
27642;SDS011;15053;48.618;10.024;2023-04-25T04:45:00;4.00;;;2.92;;
27642;SDS011;15053;48.618;10.024;2023-04-25T04:47:57;6.03;;;2.50;;
27642;SDS011;15053;48.618;10.024;2023-04-25T04:50:42;28.25;;;14.48;;
27642;SDS011;15053;48.618;10.024;2023-04-25T04:53:29;25.75;;;11.88;;
27642;SDS011;15053;48.618;10.024;2023-04-25T04:56:14;4.45;;;2.90;;
27642;SDS011;15053;48.618;10.024;2023-04-25T04:59:11;5.80;;;3.13;;
27642;SDS011;15053;48.618;10.024;2023-04-25T05:01:59;5.35;;;3.67;;
27642;SDS011;15053;48.618;10.024;2023-04-25T05:04:45;3.50;;;2.63;;
27642;SDS011;15053;48.618;10.024;2023-04-25T05:07:35;3.38;;;2.40;;
27642;SDS011;15053;48.618;10.024;2023-04-25T05:12:35;5.85;;;3.05;;
27642;SDS011;15053;48.618;10.024;2023-04-25T05:15:13;5.60;;;2.95;;
27642;SDS011;15053;48.618;10.024;2023-04-25T05:17:58;4.95;;;2.95;;
27642;SDS011;15053;48.618;10.024;2023-04-25T05:20:43;5.50;;;3.40;;
27642;SDS011;15053;48.618;10.024;2023-04-25T05:23:21;5.28;;;3.00;;
27642;SDS011;15053;48.618;10.024;2023-04-25T05:25:55;6.18;;;3.33;;
27642;SDS011;15053;48.618;10.024;2023-04-25T05:28:42;6.38;;;3.85;;
27642;SDS011;15053;48.618;10.024;2023-04-25T05:31:27;4.32;;;3.60;;
27642;SDS011;15053;48.618;10.024;2023-04-25T05:34:00;8.30;;;3.70;;
27642;SDS011;15053;48.618;10.024;2023-04-25T05:36:38;4.60;;;3.63;;
27642;SDS011;15053;48.618;10.024;2023-04-25T05:39:04;8.20;;;3.80;;
27642;SDS011;15053;48.618;10.024;2023-04-25T05:41:52;5.68;;;4.03;;
27642;SDS011;15053;48.618;10.024;2023-04-25T05:44:45;7.55;;;4.05;;
27642;SDS011;15053;48.618;10.024;2023-04-25T05:47:26;6.82;;;3.88;;
27642;SDS011;15053;48.618;10.024;2023-04-25T05:50:00;8.55;;;4.03;;
27642;SDS011;15053;48.618;10.024;2023-04-25T05:52:45;5.45;;;3.83;;
27642;SDS011;15053;48.618;10.024;2023-04-25T05:55:31;9.25;;;3.78;;
27642;SDS011;15053;48.618;10.024;2023-04-25T05:58:02;5.90;;;4.40;;
27642;SDS011;15053;48.618;10.024;2023-04-25T06:00:29;7.50;;;4.63;;
27642;SDS011;15053;48.618;10.024;2023-04-25T06:02:55;9.13;;;4.53;;
27642;SDS011;15053;48.618;10.024;2023-04-25T06:05:22;8.02;;;3.38;;
27642;SDS011;15053;48.618;10.024;2023-04-25T06:07:49;7.03;;;3.60;;
27642;SDS011;15053;48.618;10.024;2023-04-25T06:10:15;9.27;;;3.65;;
27642;SDS011;15053;48.618;10.024;2023-04-25T06:12:42;5.47;;;3.17;;
27642;SDS011;15053;48.618;10.024;2023-04-25T06:15:09;5.18;;;3.58;;
27642;SDS011;15053;48.618;10.024;2023-04-25T06:17:53;8.10;;;4.28;;
27642;SDS011;15053;48.618;10.024;2023-04-25T06:20:19;5.78;;;3.47;;
27642;SDS011;15053;48.618;10.024;2023-04-25T06:22:50;5.07;;;4.03;;
27642;SDS011;15053;48.618;10.024;2023-04-25T06:25:19;8.75;;;3.60;;
27642;SDS011;15053;48.618;10.024;2023-04-25T06:27:46;6.75;;;4.30;;
27642;SDS011;15053;48.618;10.024;2023-04-25T06:30:13;10.48;;;3.75;;
27642;SDS011;15053;48.618;10.024;2023-04-25T06:32:39;5.95;;;3.63;;
27642;SDS011;15053;48.618;10.024;2023-04-25T06:35:06;4.70;;;3.42;;
27642;SDS011;15053;48.618;10.024;2023-04-25T06:37:33;10.43;;;4.00;;
27642;SDS011;15053;48.618;10.024;2023-04-25T06:40:00;5.95;;;3.88;;
27642;SDS011;15053;48.618;10.024;2023-04-25T06:42:28;4.75;;;3.47;;
27642;SDS011;15053;48.618;10.024;2023-04-25T06:44:58;6.68;;;3.88;;
27642;SDS011;15053;48.618;10.024;2023-04-25T06:47:27;6.47;;;3.38;;
27642;SDS011;15053;48.618;10.024;2023-04-25T06:49:53;5.65;;;3.90;;
27642;SDS011;15053;48.618;10.024;2023-04-25T06:52:20;7.25;;;3.40;;
27642;SDS011;15053;48.618;10.024;2023-04-25T06:54:48;6.53;;;3.63;;
27642;SDS011;15053;48.618;10.024;2023-04-25T06:57:29;7.45;;;4.63;;
27642;SDS011;15053;48.618;10.024;2023-04-25T07:00:06;6.47;;;3.17;;
27642;SDS011;15053;48.618;10.024;2023-04-25T07:02:36;6.27;;;4.47;;
27642;SDS011;15053;48.618;10.024;2023-04-25T07:05:03;7.97;;;4.00;;
27642;SDS011;15053;48.618;10.024;2023-04-25T07:07:30;5.47;;;4.50;;
27642;SDS011;15053;48.618;10.024;2023-04-25T07:09:57;7.03;;;4.80;;
27642;SDS011;15053;48.618;10.024;2023-04-25T07:12:25;8.82;;;4.82;;
27642;SDS011;15053;48.618;10.024;2023-04-25T07:14:51;8.07;;;4.93;;
27642;SDS011;15053;48.618;10.024;2023-04-25T07:17:18;9.20;;;4.95;;
27642;SDS011;15053;48.618;10.024;2023-04-25T07:19:45;7.80;;;4.30;;
27642;SDS011;15053;48.618;10.024;2023-04-25T07:22:11;7.88;;;4.97;;
27642;SDS011;15053;48.618;10.024;2023-04-25T07:24:40;8.35;;;5.35;;
27642;SDS011;15053;48.618;10.024;2023-04-25T07:27:10;7.22;;;5.25;;
27642;SDS011;15053;48.618;10.024;2023-04-25T07:29:46;6.95;;;4.80;;
27642;SDS011;15053;48.618;10.024;2023-04-25T07:32:13;9.35;;;5.22;;
27642;SDS011;15053;48.618;10.024;2023-04-25T07:34:41;14.75;;;6.32;;
27642;SDS011;15053;48.618;10.024;2023-04-25T07:37:08;8.43;;;5.70;;
27642;SDS011;15053;48.618;10.024;2023-04-25T07:39:44;9.63;;;5.40;;
27642;SDS011;15053;48.618;10.024;2023-04-25T07:42:12;9.27;;;5.63;;
27642;SDS011;15053;48.618;10.024;2023-04-25T07:44:41;7.25;;;5.20;;
27642;SDS011;15053;48.618;10.024;2023-04-25T07:47:10;8.43;;;5.00;;
27642;SDS011;15053;48.618;10.024;2023-04-25T07:49:38;10.85;;;5.28;;
27642;SDS011;15053;48.618;10.024;2023-04-25T07:52:05;12.75;;;5.53;;
27642;SDS011;15053;48.618;10.024;2023-04-25T07:54:34;9.50;;;5.35;;
27642;SDS011;15053;48.618;10.024;2023-04-25T07:57:08;7.90;;;5.32;;
27642;SDS011;15053;48.618;10.024;2023-04-25T07:59:36;7.82;;;5.03;;
27642;SDS011;15053;48.618;10.024;2023-04-25T08:02:04;12.18;;;5.55;;
27642;SDS011;15053;48.618;10.024;2023-04-25T08:04:31;7.88;;;5.07;;
27642;SDS011;15053;48.618;10.024;2023-04-25T08:07:03;8.13;;;5.15;;
27642;SDS011;15053;48.618;10.024;2023-04-25T08:09:37;8.63;;;5.05;;
27642;SDS011;15053;48.618;10.024;2023-04-25T08:12:09;9.38;;;5.55;;
27642;SDS011;15053;48.618;10.024;2023-04-25T08:14:35;9.82;;;5.05;;
27642;SDS011;15053;48.618;10.024;2023-04-25T08:17:04;9.68;;;5.22;;
27642;SDS011;15053;48.618;10.024;2023-04-25T08:19:33;7.43;;;5.25;;
27642;SDS011;15053;48.618;10.024;2023-04-25T08:22:01;9.45;;;5.22;;
27642;SDS011;15053;48.618;10.024;2023-04-25T08:24:37;11.90;;;4.32;;
27642;SDS011;15053;48.618;10.024;2023-04-25T08:27:06;7.50;;;4.78;;
27642;SDS011;15053;48.618;10.024;2023-04-25T08:29:34;7.15;;;4.28;;
27642;SDS011;15053;48.618;10.024;2023-04-25T08:32:01;7.35;;;4.40;;
27642;SDS011;15053;48.618;10.024;2023-04-25T08:34:28;5.13;;;4.18;;
27642;SDS011;15053;48.618;10.024;2023-04-25T08:36:55;8.80;;;5.32;;
27642;SDS011;15053;48.618;10.024;2023-04-25T08:39:57;10.88;;;5.45;;
27642;SDS011;15053;48.618;10.024;2023-04-25T08:42:50;7.82;;;4.50;;
27642;SDS011;15053;48.618;10.024;2023-04-25T08:45:17;8.00;;;4.18;;
27642;SDS011;15053;48.618;10.024;2023-04-25T08:47:44;7.40;;;4.32;;
27642;SDS011;15053;48.618;10.024;2023-04-25T08:50:12;5.60;;;4.00;;
27642;SDS011;15053;48.618;10.024;2023-04-25T08:52:41;6.72;;;4.00;;
27642;SDS011;15053;48.618;10.024;2023-04-25T08:57:39;9.18;;;3.90;;
27642;SDS011;15053;48.618;10.024;2023-04-25T09:00:09;5.85;;;4.00;;
27642;SDS011;15053;48.618;10.024;2023-04-25T09:02:40;5.50;;;4.10;;
27642;SDS011;15053;48.618;10.024;2023-04-25T09:05:11;6.50;;;5.03;;
27642;SDS011;15053;48.618;10.024;2023-04-25T09:07:39;6.68;;;4.63;;
27642;SDS011;15053;48.618;10.024;2023-04-25T09:10:05;6.25;;;4.82;;
27642;SDS011;15053;48.618;10.024;2023-04-25T09:12:36;8.02;;;4.78;;
27642;SDS011;15053;48.618;10.024;2023-04-25T09:17:56;4.25;;;3.85;;
27642;SDS011;15053;48.618;10.024;2023-04-25T09:20:28;8.73;;;3.47;;
27642;SDS011;15053;48.618;10.024;2023-04-25T09:23:03;4.53;;;3.20;;
27642;SDS011;15053;48.618;10.024;2023-04-25T09:25:36;4.40;;;3.42;;
27642;SDS011;15053;48.618;10.024;2023-04-25T09:28:08;4.43;;;3.22;;
27642;SDS011;15053;48.618;10.024;2023-04-25T09:30:36;3.60;;;3.00;;
27642;SDS011;15053;48.618;10.024;2023-04-25T09:33:26;5.05;;;3.35;;
27642;SDS011;15053;48.618;10.024;2023-04-25T09:36:08;6.20;;;3.13;;
27642;SDS011;15053;48.618;10.024;2023-04-25T09:41:31;3.38;;;2.38;;
27642;SDS011;15053;48.618;10.024;2023-04-25T09:44:00;3.65;;;2.67;;
27642;SDS011;15053;48.618;10.024;2023-04-25T09:46:34;4.95;;;3.47;;
27642;SDS011;15053;48.618;10.024;2023-04-25T09:49:08;5.55;;;3.80;;
27642;SDS011;15053;48.618;10.024;2023-04-25T09:51:56;5.88;;;3.58;;
27642;SDS011;15053;48.618;10.024;2023-04-25T09:57:11;7.95;;;4.20;;
27642;SDS011;15053;48.618;10.024;2023-04-25T09:59:53;5.65;;;3.70;;
27642;SDS011;15053;48.618;10.024;2023-04-25T10:02:23;5.32;;;3.88;;
27642;SDS011;15053;48.618;10.024;2023-04-25T10:04:55;7.03;;;4.07;;
27642;SDS011;15053;48.618;10.024;2023-04-25T10:07:34;5.35;;;4.00;;
27642;SDS011;15053;48.618;10.024;2023-04-25T10:10:07;5.65;;;3.95;;
27642;SDS011;15053;48.618;10.024;2023-04-25T10:12:35;5.03;;;3.50;;
27642;SDS011;15053;48.618;10.024;2023-04-25T10:15:02;5.95;;;3.85;;
27642;SDS011;15053;48.618;10.024;2023-04-25T10:17:29;5.40;;;4.22;;
27642;SDS011;15053;48.618;10.024;2023-04-25T10:19:57;5.68;;;3.40;;
27642;SDS011;15053;48.618;10.024;2023-04-25T10:25:08;5.40;;;4.28;;
27642;SDS011;15053;48.618;10.024;2023-04-25T10:27:36;5.30;;;4.32;;
27642;SDS011;15053;48.618;10.024;2023-04-25T10:30:04;6.45;;;5.00;;
27642;SDS011;15053;48.618;10.024;2023-04-25T10:32:35;8.30;;;5.40;;
27642;SDS011;15053;48.618;10.024;2023-04-25T10:35:17;6.93;;;5.35;;
27642;SDS011;15053;48.618;10.024;2023-04-25T10:38:09;8.18;;;5.55;;
27642;SDS011;15053;48.618;10.024;2023-04-25T10:40:40;5.03;;;4.20;;
27642;SDS011;15053;48.618;10.024;2023-04-25T10:45:54;6.88;;;4.43;;
27642;SDS011;15053;48.618;10.024;2023-04-25T10:48:27;6.80;;;5.38;;
27642;SDS011;15053;48.618;10.024;2023-04-25T10:51:10;5.50;;;4.80;;
27642;SDS011;15053;48.618;10.024;2023-04-25T10:53:37;6.80;;;5.22;;
27642;SDS011;15053;48.618;10.024;2023-04-25T10:56:10;4.60;;;4.07;;
27642;SDS011;15053;48.618;10.024;2023-04-25T10:58:44;6.88;;;4.25;;
27642;SDS011;15053;48.618;10.024;2023-04-25T11:01:14;6.25;;;3.80;;
27642;SDS011;15053;48.618;10.024;2023-04-25T11:03:42;3.05;;;2.75;;
27642;SDS011;15053;48.618;10.024;2023-04-25T11:09:17;9.02;;;4.95;;
27642;SDS011;15053;48.618;10.024;2023-04-25T11:11:47;5.10;;;2.85;;
27642;SDS011;15053;48.618;10.024;2023-04-25T11:14:19;2.95;;;1.80;;
27642;SDS011;15053;48.618;10.024;2023-04-25T11:16:46;1.65;;;1.27;;
27642;SDS011;15053;48.618;10.024;2023-04-25T11:19:12;1.85;;;1.67;;
27642;SDS011;15053;48.618;10.024;2023-04-25T11:21:39;3.95;;;1.90;;
27642;SDS011;15053;48.618;10.024;2023-04-25T11:24:05;2.00;;;1.80;;
27642;SDS011;15053;48.618;10.024;2023-04-25T11:26:32;2.53;;;2.15;;
27642;SDS011;15053;48.618;10.024;2023-04-25T11:28:59;4.25;;;2.20;;
27642;SDS011;15053;48.618;10.024;2023-04-25T11:31:29;2.42;;;2.08;;
27642;SDS011;15053;48.618;10.024;2023-04-25T11:33:59;2.38;;;2.17;;
27642;SDS011;15053;48.618;10.024;2023-04-25T11:36:26;2.75;;;2.30;;
27642;SDS011;15053;48.618;10.024;2023-04-25T11:38:53;2.92;;;2.17;;
27642;SDS011;15053;48.618;10.024;2023-04-25T11:41:20;2.88;;;2.20;;
27642;SDS011;15053;48.618;10.024;2023-04-25T11:43:48;2.05;;;1.85;;
27642;SDS011;15053;48.618;10.024;2023-04-25T11:46:15;3.70;;;2.55;;
27642;SDS011;15053;48.618;10.024;2023-04-25T11:48:42;2.97;;;2.67;;
27642;SDS011;15053;48.618;10.024;2023-04-25T11:51:09;3.03;;;2.72;;
27642;SDS011;15053;48.618;10.024;2023-04-25T11:53:36;5.50;;;3.83;;
27642;SDS011;15053;48.618;10.024;2023-04-25T11:56:09;4.28;;;3.40;;
27642;SDS011;15053;48.618;10.024;2023-04-25T12:01:33;4.90;;;4.10;;
27642;SDS011;15053;48.618;10.024;2023-04-25T12:04:17;5.25;;;3.95;;
27642;SDS011;15053;48.618;10.024;2023-04-25T12:06:47;11.98;;;7.45;;
27642;SDS011;15053;48.618;10.024;2023-04-25T12:09:18;12.68;;;8.65;;
27642;SDS011;15053;48.618;10.024;2023-04-25T12:11:53;6.00;;;4.65;;
27642;SDS011;15053;48.618;10.024;2023-04-25T12:14:21;3.05;;;2.38;;
27642;SDS011;15053;48.618;10.024;2023-04-25T12:16:57;2.92;;;2.03;;
27642;SDS011;15053;48.618;10.024;2023-04-25T12:21:52;2.50;;;2.10;;
27642;SDS011;15053;48.618;10.024;2023-04-25T12:24:22;2.80;;;1.75;;
27642;SDS011;15053;48.618;10.024;2023-04-25T12:26:53;1.90;;;1.40;;
27642;SDS011;15053;48.618;10.024;2023-04-25T12:29:33;2.13;;;1.38;;
27642;SDS011;15053;48.618;10.024;2023-04-25T12:32:15;3.85;;;2.00;;
27642;SDS011;15053;48.618;10.024;2023-04-25T12:34:42;1.55;;;1.20;;
27642;SDS011;15053;48.618;10.024;2023-04-25T12:37:08;1.55;;;1.45;;
27642;SDS011;15053;48.618;10.024;2023-04-25T12:39:35;2.20;;;1.80;;
27642;SDS011;15053;48.618;10.024;2023-04-25T12:42:02;2.70;;;2.15;;
27642;SDS011;15053;48.618;10.024;2023-04-25T12:44:31;2.40;;;2.17;;
27642;SDS011;15053;48.618;10.024;2023-04-25T12:46:57;3.10;;;2.75;;
27642;SDS011;15053;48.618;10.024;2023-04-25T12:49:26;3.97;;;3.10;;
27642;SDS011;15053;48.618;10.024;2023-04-25T12:51:52;5.03;;;3.70;;
27642;SDS011;15053;48.618;10.024;2023-04-25T12:54:19;3.70;;;3.10;;
27642;SDS011;15053;48.618;10.024;2023-04-25T12:56:45;5.70;;;3.33;;
27642;SDS011;15053;48.618;10.024;2023-04-25T12:59:12;4.07;;;2.90;;
27642;SDS011;15053;48.618;10.024;2023-04-25T13:01:38;4.55;;;3.28;;
27642;SDS011;15053;48.618;10.024;2023-04-25T13:04:05;3.50;;;3.13;;
27642;SDS011;15053;48.618;10.024;2023-04-25T13:06:32;5.15;;;3.47;;
27642;SDS011;15053;48.618;10.024;2023-04-25T13:08:59;6.07;;;3.65;;
27642;SDS011;15053;48.618;10.024;2023-04-25T13:11:25;4.63;;;3.50;;
27642;SDS011;15053;48.618;10.024;2023-04-25T13:13:52;5.30;;;3.83;;
27642;SDS011;15053;48.618;10.024;2023-04-25T13:16:19;6.35;;;4.30;;
27642;SDS011;15053;48.618;10.024;2023-04-25T13:18:47;7.88;;;4.65;;
27642;SDS011;15053;48.618;10.024;2023-04-25T13:21:14;5.38;;;3.38;;
27642;SDS011;15053;48.618;10.024;2023-04-25T13:23:40;6.95;;;4.25;;
27642;SDS011;15053;48.618;10.024;2023-04-25T13:26:09;5.28;;;3.95;;
27642;SDS011;15053;48.618;10.024;2023-04-25T13:28:35;8.15;;;5.00;;
27642;SDS011;15053;48.618;10.024;2023-04-25T13:31:02;6.50;;;4.35;;
27642;SDS011;15053;48.618;10.024;2023-04-25T13:33:28;6.00;;;3.80;;
27642;SDS011;15053;48.618;10.024;2023-04-25T13:35:55;4.82;;;3.65;;
27642;SDS011;15053;48.618;10.024;2023-04-25T13:38:23;6.10;;;3.83;;
27642;SDS011;15053;48.618;10.024;2023-04-25T13:40:51;6.63;;;4.47;;
27642;SDS011;15053;48.618;10.024;2023-04-25T13:43:21;6.38;;;4.10;;
27642;SDS011;15053;48.618;10.024;2023-04-25T13:45:48;6.05;;;3.42;;
27642;SDS011;15053;48.618;10.024;2023-04-25T13:48:16;5.88;;;3.63;;
27642;SDS011;15053;48.618;10.024;2023-04-25T13:50:42;5.05;;;3.90;;
27642;SDS011;15053;48.618;10.024;2023-04-25T13:53:09;5.70;;;3.60;;
27642;SDS011;15053;48.618;10.024;2023-04-25T13:55:36;6.13;;;3.85;;
27642;SDS011;15053;48.618;10.024;2023-04-25T13:58:03;5.20;;;4.25;;
27642;SDS011;15053;48.618;10.024;2023-04-25T14:00:36;6.63;;;4.47;;
27642;SDS011;15053;48.618;10.024;2023-04-25T14:03:09;8.32;;;4.85;;
27642;SDS011;15053;48.618;10.024;2023-04-25T14:05:36;7.38;;;4.85;;
27642;SDS011;15053;48.618;10.024;2023-04-25T14:08:08;5.72;;;4.53;;
27642;SDS011;15053;48.618;10.024;2023-04-25T14:10:36;7.28;;;4.78;;
27642;SDS011;15053;48.618;10.024;2023-04-25T14:13:03;5.88;;;4.57;;
27642;SDS011;15053;48.618;10.024;2023-04-25T14:15:33;5.88;;;4.82;;
27642;SDS011;15053;48.618;10.024;2023-04-25T14:18:00;6.82;;;4.63;;
27642;SDS011;15053;48.618;10.024;2023-04-25T14:20:28;7.72;;;4.28;;
27642;SDS011;15053;48.618;10.024;2023-04-25T14:22:55;7.05;;;4.50;;
27642;SDS011;15053;48.618;10.024;2023-04-25T14:25:24;7.13;;;4.30;;
27642;SDS011;15053;48.618;10.024;2023-04-25T14:27:51;8.55;;;4.47;;
27642;SDS011;15053;48.618;10.024;2023-04-25T14:30:19;6.15;;;4.20;;
27642;SDS011;15053;48.618;10.024;2023-04-25T14:32:48;4.60;;;4.10;;
27642;SDS011;15053;48.618;10.024;2023-04-25T14:35:15;6.57;;;4.15;;
27642;SDS011;15053;48.618;10.024;2023-04-25T14:37:42;6.32;;;3.70;;
27642;SDS011;15053;48.618;10.024;2023-04-25T14:40:08;7.32;;;4.28;;
27642;SDS011;15053;48.618;10.024;2023-04-25T14:42:37;5.70;;;3.97;;
27642;SDS011;15053;48.618;10.024;2023-04-25T14:45:04;6.40;;;4.30;;
27642;SDS011;15053;48.618;10.024;2023-04-25T14:47:32;4.72;;;3.85;;
27642;SDS011;15053;48.618;10.024;2023-04-25T14:49:59;6.75;;;4.30;;
27642;SDS011;15053;48.618;10.024;2023-04-25T14:52:27;8.10;;;4.97;;
27642;SDS011;15053;48.618;10.024;2023-04-25T14:54:54;4.47;;;4.07;;
27642;SDS011;15053;48.618;10.024;2023-04-25T14:57:20;6.65;;;4.40;;
27642;SDS011;15053;48.618;10.024;2023-04-25T14:59:47;6.28;;;4.57;;
27642;SDS011;15053;48.618;10.024;2023-04-25T15:02:13;7.82;;;5.25;;
27642;SDS011;15053;48.618;10.024;2023-04-25T15:04:40;6.05;;;4.15;;
27642;SDS011;15053;48.618;10.024;2023-04-25T15:07:07;8.15;;;4.70;;
27642;SDS011;15053;48.618;10.024;2023-04-25T15:09:33;6.63;;;4.70;;
27642;SDS011;15053;48.618;10.024;2023-04-25T15:12:00;5.30;;;4.25;;
27642;SDS011;15053;48.618;10.024;2023-04-25T15:14:26;8.65;;;5.35;;
27642;SDS011;15053;48.618;10.024;2023-04-25T15:16:53;7.70;;;5.38;;
27642;SDS011;15053;48.618;10.024;2023-04-25T15:19:20;9.02;;;5.82;;